Airfield :
LOGIN :

Register | Disclaimer

   EN    FR    IT 

 










Legend :    VFR   Marginal VFR   IFR   Intensive IFR   Very Intensive IFR
Visi :
Ceiling :
>= 8 km
>= 3000ft
5 to 8 km
1000 to 3000 ft
1500m to 5 km
500 to 1000 ft
800 to 1500m
200 to 500 ft
< 800m
< 200 ft
Symbols :   Thunderstorms  Fog  Heavy snow  Heavy precipitations  Wind > 20 kt
SIGMETs :     Misc.  Thunderstorms  Icing  Turbulence  Mountain Waves  Volcanic Ashes






- Airport Elevation : 1363 ft


ETIC - Grafenwohr Army Air Field

CURRENT METAR :
  • 200034Z 00000KT 0400 R14/0450V0650 FG CLR M01/M01 A2985 RMK AO2A SLPNO ALSTG ESTMD $

EXPIRED METARs :
  • 200019Z 11003KT 1600 R14/0700VP1500 BR FEW002 FEW049 M01/M01 A2986 RMK AO2A VIS 1600V9000 SLPNO ALSTG ESTMD $
  • 200011Z 12003KT 8000 HZ FEW002 FEW049 M01/M01 A2986 RMK AO2A SLPNO ALSTG ESTMD $
  • 192356Z 00000KT 9999 SCT047 00/00 A2986 RMK AO2A SLPNO ALSTG ESTMD 60007 58007 $
  • 192326Z 00000KT 9000 HZ SCT007 OVC046 00/00 A2987 RMK AO2A SLPNO ALSTG ESTMD $
  • 192256Z 00000KT 9999 OVC009 01/01 A2988 RMK AO2A SLPNO ALSTG ESTMD $
  • 192241Z 00000KT 9999 OVC010 01/01 A2988 RMK AO2A SLPNO ALSTG ESTMD $
  • 192226Z 00000KT 9999 SCT007 OVC012 01/01 A2988 RMK AO2A SLPNO ALSTG ESTMD $
  • 192211Z 00000KT 9999 BKN007 OVC011 01/01 A2988 RMK AO2A SLPNO ALSTG ESTMD $
  • 192156Z 00000KT 9999 OVC006 02/01 A2988 RMK AO2A SLPNO ALSTG ESTMD P0001 $

TAF AMD TAF ETIC
Valid from the 19 at 23:00 until the 21 at 00:00 UTC


192301Z 1923/2024 VRB06KT 9999 BKN015 OVC030 650307 510152 QNH2988INS
TEMPO 1923/2001 BKN010
BECMG 2002/2003 23005KT 9999 SCT015 520155 QNH2985INS
BECMG 2012/2013 18006KT 9999 SCT015 BKN050 QNH2979INS TX02/2012Z TNM01/2003Z



MET'MAP, your aeronautical weather chart ! - Copyright ORBIFLY December 2007 - Disclaimer

ORBIFLY MET'MAP TEAM :

Programming & Development : Alexandra Zaïnal
Concept & original design : Baudouin d'Aumeries
Assistance for programming : Marc-Olivier Méhu
Technical & hardware support : Manuel Goepfert

Contact : metmap@orbifly.com




SOURCES & CREDITS :

   NOAA